sensor_id;sensor_type;location;lat;lon;timestamp;temperature;humidity
4366;DHT22;2196;47.422;9.656;2022-09-09T00:02:18;16.70;99.90
4366;DHT22;2196;47.422;9.656;2022-09-09T00:04:55;16.70;99.90
4366;DHT22;2196;47.422;9.656;2022-09-09T00:07:34;16.70;99.90
4366;DHT22;2196;47.422;9.656;2022-09-09T00:10:14;16.70;99.90
4366;DHT22;2196;47.422;9.656;2022-09-09T00:12:51;16.70;99.90
4366;DHT22;2196;47.422;9.656;2022-09-09T00:15:23;16.70;99.90
4366;DHT22;2196;47.422;9.656;2022-09-09T00:17:58;16.60;99.90
4366;DHT22;2196;47.422;9.656;2022-09-09T00:20:31;16.60;99.90
4366;DHT22;2196;47.422;9.656;2022-09-09T00:23:04;16.70;99.90
4366;DHT22;2196;47.422;9.656;2022-09-09T00:25:40;16.70;99.90
4366;DHT22;2196;47.422;9.656;2022-09-09T00:28:22;16.70;99.90
4366;DHT22;2196;47.422;9.656;2022-09-09T00:30:50;16.80;99.90
4366;DHT22;2196;47.422;9.656;2022-09-09T00:33:19;16.80;99.90
4366;DHT22;2196;47.422;9.656;2022-09-09T00:35:49;16.80;99.90
4366;DHT22;2196;47.422;9.656;2022-09-09T00:38:20;16.80;99.90
4366;DHT22;2196;47.422;9.656;2022-09-09T00:40:52;16.90;99.90
4366;DHT22;2196;47.422;9.656;2022-09-09T00:43:32;16.90;99.90
4366;DHT22;2196;47.422;9.656;2022-09-09T00:46:21;16.80;99.90
4366;DHT22;2196;47.422;9.656;2022-09-09T00:48:57;16.80;99.90
4366;DHT22;2196;47.422;9.656;2022-09-09T00:51:35;16.80;99.90
4366;DHT22;2196;47.422;9.656;2022-09-09T00:54:18;16.80;99.90
4366;DHT22;2196;47.422;9.656;2022-09-09T00:57:00;16.80;99.90
4366;DHT22;2196;47.422;9.656;2022-09-09T00:59:35;16.80;99.90
4366;DHT22;2196;47.422;9.656;2022-09-09T01:02:13;16.80;99.90
4366;DHT22;2196;47.422;9.656;2022-09-09T01:04:42;16.80;99.90
4366;DHT22;2196;47.422;9.656;2022-09-09T01:07:15;16.70;99.90
4366;DHT22;2196;47.422;9.656;2022-09-09T01:09:52;16.70;99.90
4366;DHT22;2196;47.422;9.656;2022-09-09T01:12:26;16.70;99.90
4366;DHT22;2196;47.422;9.656;2022-09-09T01:15:03;16.70;99.90
4366;DHT22;2196;47.422;9.656;2022-09-09T01:17:33;16.70;99.90
4366;DHT22;2196;47.422;9.656;2022-09-09T01:20:10;16.60;99.90
4366;DHT22;2196;47.422;9.656;2022-09-09T01:22:47;16.70;99.90
4366;DHT22;2196;47.422;9.656;2022-09-09T01:25:29;16.60;99.90
4366;DHT22;2196;47.422;9.656;2022-09-09T01:28:02;16.60;99.90
4366;DHT22;2196;47.422;9.656;2022-09-09T01:30:30;16.70;99.90
4366;DHT22;2196;47.422;9.656;2022-09-09T01:32:59;16.70;99.90
4366;DHT22;2196;47.422;9.656;2022-09-09T01:35:34;16.70;99.90
4366;DHT22;2196;47.422;9.656;2022-09-09T01:38:04;16.60;99.90
4366;DHT22;2196;47.422;9.656;2022-09-09T01:40:31;16.50;99.90
4366;DHT22;2196;47.422;9.656;2022-09-09T01:43:00;16.50;99.90
4366;DHT22;2196;47.422;9.656;2022-09-09T01:45:27;16.40;99.90
4366;DHT22;2196;47.422;9.656;2022-09-09T01:47:55;16.40;99.90
4366;DHT22;2196;47.422;9.656;2022-09-09T01:50:22;16.30;99.90
4366;DHT22;2196;47.422;9.656;2022-09-09T01:52:53;16.30;99.90
4366;DHT22;2196;47.422;9.656;2022-09-09T01:55:26;16.30;99.90
4366;DHT22;2196;47.422;9.656;2022-09-09T01:58:05;16.30;99.90
4366;DHT22;2196;47.422;9.656;2022-09-09T02:00:40;16.30;99.90
4366;DHT22;2196;47.422;9.656;2022-09-09T02:03:19;16.20;99.90
4366;DHT22;2196;47.422;9.656;2022-09-09T02:05:52;16.20;99.90
4366;DHT22;2196;47.422;9.656;2022-09-09T02:08:26;16.20;99.90
4366;DHT22;2196;47.422;9.656;2022-09-09T02:10:59;16.20;99.90
4366;DHT22;2196;47.422;9.656;2022-09-09T02:13:32;16.20;99.90
4366;DHT22;2196;47.422;9.656;2022-09-09T02:16:03;16.20;99.90
4366;DHT22;2196;47.422;9.656;2022-09-09T02:18:35;16.20;99.90
4366;DHT22;2196;47.422;9.656;2022-09-09T02:21:05;16.20;99.90
4366;DHT22;2196;47.422;9.656;2022-09-09T02:23:34;16.20;99.90
4366;DHT22;2196;47.422;9.656;2022-09-09T02:26:02;16.10;99.90
4366;DHT22;2196;47.422;9.656;2022-09-09T02:28:32;16.10;99.90
4366;DHT22;2196;47.422;9.656;2022-09-09T02:31:01;16.10;99.90
4366;DHT22;2196;47.422;9.656;2022-09-09T02:33:35;16.20;99.90
4366;DHT22;2196;47.422;9.656;2022-09-09T02:36:06;16.20;99.90
4366;DHT22;2196;47.422;9.656;2022-09-09T02:38:38;16.20;99.90
4366;DHT22;2196;47.422;9.656;2022-09-09T02:41:07;16.20;99.90
4366;DHT22;2196;47.422;9.656;2022-09-09T02:43:35;16.20;99.90
4366;DHT22;2196;47.422;9.656;2022-09-09T02:46:09;16.20;99.90
4366;DHT22;2196;47.422;9.656;2022-09-09T02:48:51;16.10;99.90
4366;DHT22;2196;47.422;9.656;2022-09-09T02:51:26;16.10;99.90
4366;DHT22;2196;47.422;9.656;2022-09-09T02:53:59;16.10;99.90
4366;DHT22;2196;47.422;9.656;2022-09-09T02:56:31;16.00;99.90
4366;DHT22;2196;47.422;9.656;2022-09-09T02:59:03;16.00;99.90
4366;DHT22;2196;47.422;9.656;2022-09-09T03:01:30;16.00;99.90
4366;DHT22;2196;47.422;9.656;2022-09-09T03:03:57;15.90;99.90
4366;DHT22;2196;47.422;9.656;2022-09-09T03:06:24;15.90;99.90
4366;DHT22;2196;47.422;9.656;2022-09-09T03:08:52;15.90;99.90
4366;DHT22;2196;47.422;9.656;2022-09-09T03:11:19;15.90;99.90
4366;DHT22;2196;47.422;9.656;2022-09-09T03:13:46;15.90;99.90
4366;DHT22;2196;47.422;9.656;2022-09-09T03:16:15;15.90;99.90
4366;DHT22;2196;47.422;9.656;2022-09-09T03:18:43;15.90;99.90
4366;DHT22;2196;47.422;9.656;2022-09-09T03:21:10;15.80;99.90
4366;DHT22;2196;47.422;9.656;2022-09-09T03:23:37;15.90;99.90
4366;DHT22;2196;47.422;9.656;2022-09-09T03:26:04;15.90;99.90
4366;DHT22;2196;47.422;9.656;2022-09-09T03:28:31;15.80;99.90
4366;DHT22;2196;47.422;9.656;2022-09-09T03:30:59;15.80;99.90
4366;DHT22;2196;47.422;9.656;2022-09-09T03:33:28;15.90;99.90
4366;DHT22;2196;47.422;9.656;2022-09-09T03:35:55;15.90;99.90
4366;DHT22;2196;47.422;9.656;2022-09-09T03:38:23;15.90;99.90
4366;DHT22;2196;47.422;9.656;2022-09-09T03:40:51;16.00;99.90
4366;DHT22;2196;47.422;9.656;2022-09-09T03:43:21;16.10;99.90
4366;DHT22;2196;47.422;9.656;2022-09-09T03:45:48;16.10;99.90
4366;DHT22;2196;47.422;9.656;2022-09-09T03:48:18;16.10;99.90
4366;DHT22;2196;47.422;9.656;2022-09-09T03:50:47;16.10;99.90
4366;DHT22;2196;47.422;9.656;2022-09-09T03:53:20;16.10;99.90
4366;DHT22;2196;47.422;9.656;2022-09-09T03:55:48;16.10;99.90
4366;DHT22;2196;47.422;9.656;2022-09-09T03:58:17;16.20;99.90
4366;DHT22;2196;47.422;9.656;2022-09-09T04:00:54;16.20;99.90
4366;DHT22;2196;47.422;9.656;2022-09-09T04:03:21;16.10;99.90
4366;DHT22;2196;47.422;9.656;2022-09-09T04:05:51;16.10;99.90
4366;DHT22;2196;47.422;9.656;2022-09-09T04:08:19;16.10;99.90
4366;DHT22;2196;47.422;9.656;2022-09-09T04:10:47;16.10;99.90
4366;DHT22;2196;47.422;9.656;2022-09-09T04:13:18;16.10;99.90
4366;DHT22;2196;47.422;9.656;2022-09-09T04:15:51;16.10;99.90
4366;DHT22;2196;47.422;9.656;2022-09-09T04:18:19;16.10;99.90
4366;DHT22;2196;47.422;9.656;2022-09-09T04:20:46;16.10;99.90
4366;DHT22;2196;47.422;9.656;2022-09-09T04:23:16;16.10;99.90
4366;DHT22;2196;47.422;9.656;2022-09-09T04:25:48;16.10;99.90
4366;DHT22;2196;47.422;9.656;2022-09-09T04:28:19;16.10;99.90
4366;DHT22;2196;47.422;9.656;2022-09-09T04:30:47;16.10;99.90
4366;DHT22;2196;47.422;9.656;2022-09-09T04:33:17;16.10;99.90
4366;DHT22;2196;47.422;9.656;2022-09-09T04:35:45;16.10;99.90
4366;DHT22;2196;47.422;9.656;2022-09-09T04:38:18;16.20;99.90
4366;DHT22;2196;47.422;9.656;2022-09-09T04:40:46;16.30;99.90
4366;DHT22;2196;47.422;9.656;2022-09-09T04:43:14;16.30;99.90
4366;DHT22;2196;47.422;9.656;2022-09-09T04:45:41;16.30;99.90
4366;DHT22;2196;47.422;9.656;2022-09-09T04:48:08;16.30;99.90
4366;DHT22;2196;47.422;9.656;2022-09-09T04:50:36;16.30;99.90
4366;DHT22;2196;47.422;9.656;2022-09-09T04:53:04;16.30;99.90
4366;DHT22;2196;47.422;9.656;2022-09-09T04:55:33;16.30;99.90
4366;DHT22;2196;47.422;9.656;2022-09-09T04:58:03;16.40;99.90
4366;DHT22;2196;47.422;9.656;2022-09-09T05:00:30;16.50;99.90
4366;DHT22;2196;47.422;9.656;2022-09-09T05:02:58;16.50;99.90
4366;DHT22;2196;47.422;9.656;2022-09-09T05:05:26;16.60;99.90
4366;DHT22;2196;47.422;9.656;2022-09-09T05:07:53;16.60;99.90
4366;DHT22;2196;47.422;9.656;2022-09-09T05:10:20;16.70;99.90
4366;DHT22;2196;47.422;9.656;2022-09-09T05:12:53;16.70;99.90
4366;DHT22;2196;47.422;9.656;2022-09-09T05:15:21;16.60;99.90
4366;DHT22;2196;47.422;9.656;2022-09-09T05:17:48;16.70;99.90
4366;DHT22;2196;47.422;9.656;2022-09-09T05:20:18;16.70;99.90
4366;DHT22;2196;47.422;9.656;2022-09-09T05:22:45;16.70;99.90
4366;DHT22;2196;47.422;9.656;2022-09-09T05:25:12;16.60;99.90
4366;DHT22;2196;47.422;9.656;2022-09-09T05:27:39;16.60;99.90
4366;DHT22;2196;47.422;9.656;2022-09-09T05:30:09;16.60;99.90
4366;DHT22;2196;47.422;9.656;2022-09-09T05:32:36;16.50;99.90
4366;DHT22;2196;47.422;9.656;2022-09-09T05:35:04;16.50;99.90
4366;DHT22;2196;47.422;9.656;2022-09-09T05:37:31;16.60;99.90
4366;DHT22;2196;47.422;9.656;2022-09-09T05:39:58;16.60;99.90
4366;DHT22;2196;47.422;9.656;2022-09-09T05:42:30;16.50;99.90
4366;DHT22;2196;47.422;9.656;2022-09-09T05:44:58;16.50;99.90
4366;DHT22;2196;47.422;9.656;2022-09-09T05:47:26;16.60;99.90
4366;DHT22;2196;47.422;9.656;2022-09-09T05:49:54;16.60;99.90
4366;DHT22;2196;47.422;9.656;2022-09-09T05:52:21;16.60;99.90
4366;DHT22;2196;47.422;9.656;2022-09-09T05:54:49;16.60;99.90
4366;DHT22;2196;47.422;9.656;2022-09-09T05:57:16;16.60;99.90
4366;DHT22;2196;47.422;9.656;2022-09-09T05:59:45;16.70;99.90
4366;DHT22;2196;47.422;9.656;2022-09-09T06:02:12;16.80;99.90
4366;DHT22;2196;47.422;9.656;2022-09-09T06:04:41;16.90;99.90
4366;DHT22;2196;47.422;9.656;2022-09-09T06:07:08;16.80;99.90
4366;DHT22;2196;47.422;9.656;2022-09-09T06:09:35;16.90;99.90
4366;DHT22;2196;47.422;9.656;2022-09-09T06:12:02;16.90;99.90
4366;DHT22;2196;47.422;9.656;2022-09-09T06:14:30;17.00;99.90
4366;DHT22;2196;47.422;9.656;2022-09-09T06:16:57;17.00;99.90
4366;DHT22;2196;47.422;9.656;2022-09-09T06:19:25;17.10;99.90
4366;DHT22;2196;47.422;9.656;2022-09-09T06:21:53;17.10;99.90
4366;DHT22;2196;47.422;9.656;2022-09-09T06:24:20;17.20;99.90
4366;DHT22;2196;47.422;9.656;2022-09-09T06:26:48;17.20;99.90
4366;DHT22;2196;47.422;9.656;2022-09-09T06:29:15;17.20;99.90
4366;DHT22;2196;47.422;9.656;2022-09-09T06:31:42;17.30;99.90
4366;DHT22;2196;47.422;9.656;2022-09-09T06:34:09;17.40;99.90
4366;DHT22;2196;47.422;9.656;2022-09-09T06:36:38;17.40;99.90
4366;DHT22;2196;47.422;9.656;2022-09-09T06:39:07;17.30;99.90
4366;DHT22;2196;47.422;9.656;2022-09-09T06:41:36;17.40;99.90
4366;DHT22;2196;47.422;9.656;2022-09-09T06:44:04;17.30;99.90
4366;DHT22;2196;47.422;9.656;2022-09-09T06:46:32;17.20;99.90
4366;DHT22;2196;47.422;9.656;2022-09-09T06:48:59;17.20;99.90
4366;DHT22;2196;47.422;9.656;2022-09-09T06:51:28;17.20;99.90
4366;DHT22;2196;47.422;9.656;2022-09-09T06:53:57;17.10;99.90
4366;DHT22;2196;47.422;9.656;2022-09-09T06:56:27;17.10;99.90
4366;DHT22;2196;47.422;9.656;2022-09-09T06:58:56;17.10;99.90
4366;DHT22;2196;47.422;9.656;2022-09-09T07:01:25;17.10;99.90
4366;DHT22;2196;47.422;9.656;2022-09-09T07:03:53;17.10;99.90
4366;DHT22;2196;47.422;9.656;2022-09-09T07:06:23;17.10;99.90
4366;DHT22;2196;47.422;9.656;2022-09-09T07:08:51;17.10;99.90
4366;DHT22;2196;47.422;9.656;2022-09-09T07:11:20;17.10;99.90
4366;DHT22;2196;47.422;9.656;2022-09-09T07:13:49;17.10;99.90
4366;DHT22;2196;47.422;9.656;2022-09-09T07:16:18;17.20;99.90
4366;DHT22;2196;47.422;9.656;2022-09-09T07:18:46;17.20;99.90
4366;DHT22;2196;47.422;9.656;2022-09-09T07:21:14;17.20;99.90
4366;DHT22;2196;47.422;9.656;2022-09-09T07:23:41;17.20;99.90
4366;DHT22;2196;47.422;9.656;2022-09-09T07:26:09;17.20;99.90
4366;DHT22;2196;47.422;9.656;2022-09-09T07:28:37;17.30;99.90
4366;DHT22;2196;47.422;9.656;2022-09-09T07:31:06;17.30;99.90
4366;DHT22;2196;47.422;9.656;2022-09-09T07:33:34;17.40;99.90
4366;DHT22;2196;47.422;9.656;2022-09-09T07:36:04;17.40;99.90
4366;DHT22;2196;47.422;9.656;2022-09-09T07:38:31;17.50;99.90
4366;DHT22;2196;47.422;9.656;2022-09-09T07:41:04;17.50;99.90
4366;DHT22;2196;47.422;9.656;2022-09-09T07:43:31;17.60;99.90
4366;DHT22;2196;47.422;9.656;2022-09-09T07:46:00;17.60;99.90
4366;DHT22;2196;47.422;9.656;2022-09-09T07:48:29;17.70;99.90
4366;DHT22;2196;47.422;9.656;2022-09-09T07:51:04;17.70;99.90
4366;DHT22;2196;47.422;9.656;2022-09-09T07:53:32;17.60;99.90
4366;DHT22;2196;47.422;9.656;2022-09-09T07:56:04;17.60;99.90
4366;DHT22;2196;47.422;9.656;2022-09-09T07:58:31;17.70;99.90
4366;DHT22;2196;47.422;9.656;2022-09-09T08:00:58;17.60;99.90
4366;DHT22;2196;47.422;9.656;2022-09-09T08:03:25;17.70;99.90
4366;DHT22;2196;47.422;9.656;2022-09-09T08:06:00;17.70;99.90
4366;DHT22;2196;47.422;9.656;2022-09-09T08:08:28;17.70;99.90
4366;DHT22;2196;47.422;9.656;2022-09-09T08:11:02;17.60;99.90
4366;DHT22;2196;47.422;9.656;2022-09-09T08:13:29;17.60;99.90
4366;DHT22;2196;47.422;9.656;2022-09-09T08:16:04;17.50;99.90
4366;DHT22;2196;47.422;9.656;2022-09-09T08:18:31;17.50;99.90
4366;DHT22;2196;47.422;9.656;2022-09-09T08:21:05;17.40;99.90
4366;DHT22;2196;47.422;9.656;2022-09-09T08:23:32;17.50;99.90
4366;DHT22;2196;47.422;9.656;2022-09-09T08:26:04;17.60;99.90
4366;DHT22;2196;47.422;9.656;2022-09-09T08:28:31;17.60;99.90
4366;DHT22;2196;47.422;9.656;2022-09-09T08:31:09;17.50;99.90
4366;DHT22;2196;47.422;9.656;2022-09-09T08:33:36;17.50;99.90
4366;DHT22;2196;47.422;9.656;2022-09-09T08:36:06;17.50;99.90
4366;DHT22;2196;47.422;9.656;2022-09-09T08:38:34;17.50;99.90
4366;DHT22;2196;47.422;9.656;2022-09-09T08:44:09;17.30;99.90
4366;DHT22;2196;47.422;9.656;2022-09-09T08:46:44;17.30;99.90
4366;DHT22;2196;47.422;9.656;2022-09-09T08:49:26;17.30;99.90
4366;DHT22;2196;47.422;9.656;2022-09-09T08:52:04;17.30;99.90
4366;DHT22;2196;47.422;9.656;2022-09-09T08:54:36;17.20;99.90
4366;DHT22;2196;47.422;9.656;2022-09-09T08:57:04;17.10;99.90
4366;DHT22;2196;47.422;9.656;2022-09-09T08:59:38;17.20;99.90
4366;DHT22;2196;47.422;9.656;2022-09-09T09:02:14;17.20;99.90
4366;DHT22;2196;47.422;9.656;2022-09-09T09:07:44;17.10;99.90
4366;DHT22;2196;47.422;9.656;2022-09-09T09:10:28;17.00;99.90
4366;DHT22;2196;47.422;9.656;2022-09-09T09:13:00;16.90;99.90
4366;DHT22;2196;47.422;9.656;2022-09-09T09:15:32;16.80;99.90
4366;DHT22;2196;47.422;9.656;2022-09-09T09:18:03;16.70;99.90
4366;DHT22;2196;47.422;9.656;2022-09-09T09:20:35;16.70;99.90
4366;DHT22;2196;47.422;9.656;2022-09-09T09:23:16;16.80;99.90
4366;DHT22;2196;47.422;9.656;2022-09-09T09:25:51;16.70;99.90
4366;DHT22;2196;47.422;9.656;2022-09-09T09:28:24;16.60;99.90
4366;DHT22;2196;47.422;9.656;2022-09-09T09:30:55;16.50;99.90
4366;DHT22;2196;47.422;9.656;2022-09-09T09:33:27;16.50;99.90
4366;DHT22;2196;47.422;9.656;2022-09-09T09:35:56;16.50;99.90
4366;DHT22;2196;47.422;9.656;2022-09-09T09:38:29;16.50;99.90
4366;DHT22;2196;47.422;9.656;2022-09-09T09:40:58;16.40;99.90
4366;DHT22;2196;47.422;9.656;2022-09-09T09:43:28;16.40;99.90
4366;DHT22;2196;47.422;9.656;2022-09-09T09:45:55;16.50;99.90
4366;DHT22;2196;47.422;9.656;2022-09-09T09:48:24;16.50;99.90
4366;DHT22;2196;47.422;9.656;2022-09-09T09:50:53;16.60;99.90
4366;DHT22;2196;47.422;9.656;2022-09-09T09:53:24;16.60;99.90
4366;DHT22;2196;47.422;9.656;2022-09-09T09:56:26;16.60;99.90
4366;DHT22;2196;47.422;9.656;2022-09-09T09:58:55;16.60;99.90
4366;DHT22;2196;47.422;9.656;2022-09-09T10:01:24;16.70;99.90
4366;DHT22;2196;47.422;9.656;2022-09-09T10:03:55;16.80;99.90
4366;DHT22;2196;47.422;9.656;2022-09-09T10:06:31;16.80;99.90
4366;DHT22;2196;47.422;9.656;2022-09-09T10:08:59;16.90;99.90
4366;DHT22;2196;47.422;9.656;2022-09-09T10:11:44;17.00;99.90
4366;DHT22;2196;47.422;9.656;2022-09-09T10:14:18;17.10;99.90
4366;DHT22;2196;47.422;9.656;2022-09-09T10:16:57;17.40;99.90
4366;DHT22;2196;47.422;9.656;2022-09-09T10:19:30;17.70;99.90
4366;DHT22;2196;47.422;9.656;2022-09-09T10:22:25;18.00;99.90
4366;DHT22;2196;47.422;9.656;2022-09-09T10:25:15;18.30;99.90
4366;DHT22;2196;47.422;9.656;2022-09-09T10:30:46;18.60;99.90
4366;DHT22;2196;47.422;9.656;2022-09-09T10:33:25;18.80;99.90
4366;DHT22;2196;47.422;9.656;2022-09-09T10:36:02;18.80;99.90
4366;DHT22;2196;47.422;9.656;2022-09-09T10:38:40;18.70;99.90
4366;DHT22;2196;47.422;9.656;2022-09-09T10:41:17;18.70;99.90
4366;DHT22;2196;47.422;9.656;2022-09-09T10:44:06;18.70;99.90
4366;DHT22;2196;47.422;9.656;2022-09-09T10:46:49;18.90;99.90
4366;DHT22;2196;47.422;9.656;2022-09-09T10:49:30;19.00;99.90
4366;DHT22;2196;47.422;9.656;2022-09-09T10:52:04;18.90;99.90
4366;DHT22;2196;47.422;9.656;2022-09-09T10:54:46;18.90;99.90
4366;DHT22;2196;47.422;9.656;2022-09-09T10:57:26;18.90;99.90
4366;DHT22;2196;47.422;9.656;2022-09-09T11:00:04;18.80;99.90
4366;DHT22;2196;47.422;9.656;2022-09-09T11:02:33;18.90;99.90
4366;DHT22;2196;47.422;9.656;2022-09-09T11:05:03;19.00;99.90
4366;DHT22;2196;47.422;9.656;2022-09-09T11:07:37;19.20;99.90
4366;DHT22;2196;47.422;9.656;2022-09-09T11:10:13;19.70;99.90
4366;DHT22;2196;47.422;9.656;2022-09-09T11:12:47;20.00;99.90
4366;DHT22;2196;47.422;9.656;2022-09-09T11:15:22;20.00;99.90
4366;DHT22;2196;47.422;9.656;2022-09-09T11:17:55;20.30;99.90
4366;DHT22;2196;47.422;9.656;2022-09-09T11:20:26;20.30;99.90
4366;DHT22;2196;47.422;9.656;2022-09-09T11:22:55;20.20;99.90
4366;DHT22;2196;47.422;9.656;2022-09-09T11:25:32;20.40;99.90
4366;DHT22;2196;47.422;9.656;2022-09-09T11:28:16;20.60;99.90
4366;DHT22;2196;47.422;9.656;2022-09-09T11:31:02;20.80;99.90
4366;DHT22;2196;47.422;9.656;2022-09-09T11:33:50;21.00;99.90
4366;DHT22;2196;47.422;9.656;2022-09-09T11:36:50;20.60;99.90
4366;DHT22;2196;47.422;9.656;2022-09-09T11:42:25;20.70;99.90
4366;DHT22;2196;47.422;9.656;2022-09-09T11:44:53;20.60;99.90
4366;DHT22;2196;47.422;9.656;2022-09-09T11:47:24;20.60;99.90
4366;DHT22;2196;47.422;9.656;2022-09-09T11:49:55;20.40;99.90
4366;DHT22;2196;47.422;9.656;2022-09-09T11:52:36;19.90;99.90
4366;DHT22;2196;47.422;9.656;2022-09-09T11:55:09;19.70;99.90
4366;DHT22;2196;47.422;9.656;2022-09-09T11:57:38;19.30;99.90
4366;DHT22;2196;47.422;9.656;2022-09-09T12:00:07;19.10;99.90
4366;DHT22;2196;47.422;9.656;2022-09-09T12:02:36;19.20;99.90
4366;DHT22;2196;47.422;9.656;2022-09-09T12:05:06;19.20;99.90
4366;DHT22;2196;47.422;9.656;2022-09-09T12:07:38;19.10;99.90
4366;DHT22;2196;47.422;9.656;2022-09-09T12:10:21;19.00;99.90
4366;DHT22;2196;47.422;9.656;2022-09-09T12:12:52;19.10;99.90
4366;DHT22;2196;47.422;9.656;2022-09-09T12:15:25;19.10;99.90
4366;DHT22;2196;47.422;9.656;2022-09-09T12:17:57;19.20;99.90
4366;DHT22;2196;47.422;9.656;2022-09-09T12:20:31;19.30;99.90
4366;DHT22;2196;47.422;9.656;2022-09-09T12:26:01;19.60;99.90
4366;DHT22;2196;47.422;9.656;2022-09-09T12:28:44;19.80;99.90
4366;DHT22;2196;47.422;9.656;2022-09-09T12:31:17;20.00;99.90
4366;DHT22;2196;47.422;9.656;2022-09-09T12:33:49;20.20;99.90
4366;DHT22;2196;47.422;9.656;2022-09-09T12:36:20;20.40;99.90
4366;DHT22;2196;47.422;9.656;2022-09-09T12:38:48;20.50;99.90
4366;DHT22;2196;47.422;9.656;2022-09-09T12:41:21;20.70;99.90
4366;DHT22;2196;47.422;9.656;2022-09-09T12:43:49;20.80;99.90
4366;DHT22;2196;47.422;9.656;2022-09-09T12:46:23;20.60;99.90
4366;DHT22;2196;47.422;9.656;2022-09-09T12:48:53;20.60;99.90
4366;DHT22;2196;47.422;9.656;2022-09-09T12:51:24;20.70;99.90
4366;DHT22;2196;47.422;9.656;2022-09-09T12:53:53;20.70;99.90
4366;DHT22;2196;47.422;9.656;2022-09-09T12:56:21;20.60;99.90
4366;DHT22;2196;47.422;9.656;2022-09-09T12:58:51;20.60;99.90
4366;DHT22;2196;47.422;9.656;2022-09-09T13:01:22;20.80;99.90
4366;DHT22;2196;47.422;9.656;2022-09-09T13:03:49;20.90;99.90
4366;DHT22;2196;47.422;9.656;2022-09-09T13:06:21;21.10;99.90
4366;DHT22;2196;47.422;9.656;2022-09-09T13:08:49;21.00;99.90
4366;DHT22;2196;47.422;9.656;2022-09-09T13:11:19;20.90;99.90
4366;DHT22;2196;47.422;9.656;2022-09-09T13:13:51;20.80;99.90
4366;DHT22;2196;47.422;9.656;2022-09-09T13:16:22;20.70;99.90
4366;DHT22;2196;47.422;9.656;2022-09-09T13:18:49;20.80;99.90
4366;DHT22;2196;47.422;9.656;2022-09-09T13:21:18;21.00;99.90
4366;DHT22;2196;47.422;9.656;2022-09-09T13:23:50;21.20;99.90
4366;DHT22;2196;47.422;9.656;2022-09-09T13:26:22;21.30;99.90
4366;DHT22;2196;47.422;9.656;2022-09-09T13:28:50;21.20;99.90
4366;DHT22;2196;47.422;9.656;2022-09-09T13:31:23;21.20;99.90
4366;DHT22;2196;47.422;9.656;2022-09-09T13:33:50;21.00;99.90
4366;DHT22;2196;47.422;9.656;2022-09-09T13:36:28;20.90;99.90
4366;DHT22;2196;47.422;9.656;2022-09-09T13:38:58;20.90;99.90
4366;DHT22;2196;47.422;9.656;2022-09-09T13:41:32;20.80;99.90
4366;DHT22;2196;47.422;9.656;2022-09-09T13:44:01;20.80;99.90
4366;DHT22;2196;47.422;9.656;2022-09-09T13:46:33;20.80;99.90
4366;DHT22;2196;47.422;9.656;2022-09-09T13:49:01;20.80;99.90
4366;DHT22;2196;47.422;9.656;2022-09-09T13:51:38;20.70;99.90
4366;DHT22;2196;47.422;9.656;2022-09-09T13:54:09;20.60;99.90
4366;DHT22;2196;47.422;9.656;2022-09-09T13:56:38;20.70;99.90
4366;DHT22;2196;47.422;9.656;2022-09-09T13:59:11;20.50;99.90
4366;DHT22;2196;47.422;9.656;2022-09-09T14:01:38;20.50;99.90
4366;DHT22;2196;47.422;9.656;2022-09-09T14:04:06;20.50;99.90
4366;DHT22;2196;47.422;9.656;2022-09-09T14:06:34;20.50;99.90
4366;DHT22;2196;47.422;9.656;2022-09-09T14:09:02;20.60;99.90
4366;DHT22;2196;47.422;9.656;2022-09-09T14:11:31;20.50;99.90
4366;DHT22;2196;47.422;9.656;2022-09-09T14:13:58;20.50;99.90
4366;DHT22;2196;47.422;9.656;2022-09-09T14:16:26;20.50;99.90
4366;DHT22;2196;47.422;9.656;2022-09-09T14:18:54;20.30;99.90
4366;DHT22;2196;47.422;9.656;2022-09-09T14:21:22;20.40;99.90
4366;DHT22;2196;47.422;9.656;2022-09-09T14:23:49;20.40;99.90
4366;DHT22;2196;47.422;9.656;2022-09-09T14:26:16;20.50;99.90
4366;DHT22;2196;47.422;9.656;2022-09-09T14:28:48;20.40;99.90
4366;DHT22;2196;47.422;9.656;2022-09-09T14:31:16;20.40;99.90
4366;DHT22;2196;47.422;9.656;2022-09-09T14:33:43;20.30;99.90
4366;DHT22;2196;47.422;9.656;2022-09-09T14:36:10;20.30;99.90
4366;DHT22;2196;47.422;9.656;2022-09-09T14:38:38;20.40;99.90
4366;DHT22;2196;47.422;9.656;2022-09-09T14:41:05;20.40;99.90
4366;DHT22;2196;47.422;9.656;2022-09-09T14:43:32;20.50;99.90
4366;DHT22;2196;47.422;9.656;2022-09-09T14:46:06;20.50;99.90
4366;DHT22;2196;47.422;9.656;2022-09-09T14:48:33;20.50;99.90
4366;DHT22;2196;47.422;9.656;2022-09-09T14:51:05;20.50;99.90
4366;DHT22;2196;47.422;9.656;2022-09-09T14:53:32;20.40;99.90
4366;DHT22;2196;47.422;9.656;2022-09-09T14:56:04;20.40;99.90
4366;DHT22;2196;47.422;9.656;2022-09-09T14:58:32;20.40;99.90
4366;DHT22;2196;47.422;9.656;2022-09-09T15:01:06;20.40;99.90
4366;DHT22;2196;47.422;9.656;2022-09-09T15:03:35;20.40;99.90
4366;DHT22;2196;47.422;9.656;2022-09-09T15:06:06;20.40;99.90
4366;DHT22;2196;47.422;9.656;2022-09-09T15:08:34;20.40;99.90
4366;DHT22;2196;47.422;9.656;2022-09-09T15:11:02;20.50;99.90
4366;DHT22;2196;47.422;9.656;2022-09-09T15:13:30;20.50;99.90
4366;DHT22;2196;47.422;9.656;2022-09-09T15:16:05;20.50;99.90
4366;DHT22;2196;47.422;9.656;2022-09-09T15:18:32;20.50;99.90
4366;DHT22;2196;47.422;9.656;2022-09-09T15:21:01;20.40;99.90
4366;DHT22;2196;47.422;9.656;2022-09-09T15:23:31;20.30;99.90
4366;DHT22;2196;47.422;9.656;2022-09-09T15:25:58;20.20;99.90
4366;DHT22;2196;47.422;9.656;2022-09-09T15:28:26;20.10;99.90
4366;DHT22;2196;47.422;9.656;2022-09-09T15:30:53;20.00;99.90
4366;DHT22;2196;47.422;9.656;2022-09-09T15:33:23;20.00;99.90
4366;DHT22;2196;47.422;9.656;2022-09-09T15:35:50;20.10;99.90
4366;DHT22;2196;47.422;9.656;2022-09-09T15:38:17;20.10;99.90
4366;DHT22;2196;47.422;9.656;2022-09-09T15:40:45;20.20;99.90
4366;DHT22;2196;47.422;9.656;2022-09-09T15:43:19;20.30;99.90
4366;DHT22;2196;47.422;9.656;2022-09-09T15:45:51;20.40;99.90
4366;DHT22;2196;47.422;9.656;2022-09-09T15:48:30;20.40;99.90
4366;DHT22;2196;47.422;9.656;2022-09-09T15:51:01;20.40;99.90
4366;DHT22;2196;47.422;9.656;2022-09-09T15:53:29;20.40;99.90
4366;DHT22;2196;47.422;9.656;2022-09-09T15:55:58;20.40;99.90
4366;DHT22;2196;47.422;9.656;2022-09-09T15:58:25;20.30;99.90
4366;DHT22;2196;47.422;9.656;2022-09-09T16:00:52;20.30;99.90
4366;DHT22;2196;47.422;9.656;2022-09-09T16:03:19;20.20;99.90
4366;DHT22;2196;47.422;9.656;2022-09-09T16:05:51;20.20;99.90
4366;DHT22;2196;47.422;9.656;2022-09-09T16:08:19;20.20;99.90
4366;DHT22;2196;47.422;9.656;2022-09-09T16:10:46;20.30;99.90
4366;DHT22;2196;47.422;9.656;2022-09-09T16:13:13;20.40;99.90
4366;DHT22;2196;47.422;9.656;2022-09-09T16:15:40;20.40;99.90
4366;DHT22;2196;47.422;9.656;2022-09-09T16:18:08;20.30;99.90
4366;DHT22;2196;47.422;9.656;2022-09-09T16:20:35;20.30;99.90
4366;DHT22;2196;47.422;9.656;2022-09-09T16:23:03;20.10;99.90
4366;DHT22;2196;47.422;9.656;2022-09-09T16:25:30;20.00;99.90
4366;DHT22;2196;47.422;9.656;2022-09-09T16:27:57;19.90;99.90
4366;DHT22;2196;47.422;9.656;2022-09-09T16:30:24;19.70;99.90
4366;DHT22;2196;47.422;9.656;2022-09-09T16:32:51;19.60;99.90
4366;DHT22;2196;47.422;9.656;2022-09-09T16:35:18;19.50;99.90
4366;DHT22;2196;47.422;9.656;2022-09-09T16:37:46;19.50;99.90
4366;DHT22;2196;47.422;9.656;2022-09-09T16:40:15;19.40;99.90
4366;DHT22;2196;47.422;9.656;2022-09-09T16:42:42;19.40;99.90